Time;durP1;ratioP1;P1;durP2;ratioP2;P2;SDS_P1;SDS_P2;PMS_P1;PMS_P2;Temp;Humidity;BMP_temperature;BMP_pressure;BME280_temperature;BME280_humidity;BME280_pressure;Samples;Min_cycle;Max_cycle;Signal;HPM_P1;HPM_P2
2023/12/19 00:00:10;;;;;;;8.83;6.70;;;6.60;99.90;;;;;;4907151;29;20258;-63
2023/12/19 00:02:36;;;;;;;8.60;6.33;;;6.60;99.90;;;;;;4909360;29;20429;-64
2023/12/19 00:05:01;;;;;;;10.67;6.20;;;6.70;99.90;;;;;;4912415;29;20889;-64
2023/12/19 00:07:30;;;;;;;9.90;6.40;;;6.70;99.90;;;;;;4908607;29;20189;-64
2023/12/19 00:09:56;;;;;;;9.63;6.70;;;6.70;99.90;;;;;;4910502;29;20678;-63
2023/12/19 00:12:22;;;;;;;8.20;6.70;;;6.70;99.90;;;;;;4920075;29;20421;-63
2023/12/19 00:14:47;;;;;;;10.10;6.90;;;6.70;99.90;;;;;;4907289;29;20228;-63
2023/12/19 00:17:13;;;;;;;10.50;5.37;;;6.70;99.90;;;;;;4914087;29;20433;-66
2023/12/19 00:19:38;;;;;;;7.80;5.87;;;6.70;99.90;;;;;;4922048;29;20267;-64
2023/12/19 00:22:04;;;;;;;6.50;5.77;;;6.70;99.90;;;;;;4918264;29;20184;-64
2023/12/19 00:24:29;;;;;;;9.23;5.40;;;6.70;99.90;;;;;;4912075;29;20208;-64
2023/12/19 00:26:55;;;;;;;8.57;5.90;;;6.70;99.90;;;;;;4910752;29;20174;-65
2023/12/19 00:29:21;;;;;;;7.80;5.10;;;6.70;99.90;;;;;;4901357;29;20616;-66
2023/12/19 00:31:46;;;;;;;6.77;5.20;;;6.70;99.90;;;;;;4901954;29;20210;-66
2023/12/19 00:34:13;;;;;;;6.70;5.10;;;6.70;99.90;;;;;;4935732;23;20742;-66
2023/12/19 00:36:39;;;;;;;9.27;5.70;;;6.80;99.90;;;;;;4921730;29;20219;-66
2023/12/19 00:39:05;;;;;;;6.67;6.03;;;6.70;99.90;;;;;;4930969;29;20452;-66
2023/12/19 00:41:30;;;;;;;6.47;5.40;;;6.80;99.90;;;;;;4920866;29;20556;-66
2023/12/19 00:43:56;;;;;;;7.70;5.73;;;6.80;99.90;;;;;;4920925;29;20719;-65
2023/12/19 00:46:21;;;;;;;6.57;5.70;;;6.80;99.90;;;;;;4933117;29;20212;-66
2023/12/19 00:48:47;;;;;;;5.20;4.63;;;6.80;99.90;;;;;;4926518;29;20176;-64
2023/12/19 00:51:13;;;;;;;9.47;5.97;;;6.80;99.90;;;;;;4923032;29;20181;-64
2023/12/19 00:53:39;;;;;;;7.57;5.50;;;6.80;99.90;;;;;;4928549;29;20464;-66
2023/12/19 00:56:07;;;;;;;9.47;5.80;;;6.70;99.90;;;;;;4925305;29;20186;-64
2023/12/19 00:58:33;;;;;;;7.30;4.67;;;6.70;99.90;;;;;;4929276;29;20446;-64
2023/12/19 01:00:58;;;;;;;9.37;5.43;;;6.70;99.90;;;;;;4919550;29;20430;-64
2023/12/19 01:03:24;;;;;;;5.97;5.30;;;6.80;99.90;;;;;;4926672;29;20364;-63
2023/12/19 01:05:50;;;;;;;8.37;5.00;;;6.80;99.90;;;;;;4912597;29;20212;-65
2023/12/19 01:08:15;;;;;;;5.73;5.20;;;6.80;99.90;;;;;;4932386;29;20622;-64
2023/12/19 01:10:41;;;;;;;7.73;5.40;;;6.80;99.90;;;;;;4931188;29;20190;-63
2023/12/19 01:13:07;;;;;;;6.33;4.97;;;6.80;99.90;;;;;;4917915;29;20570;-64
2023/12/19 01:15:32;;;;;;;7.57;5.27;;;6.70;99.90;;;;;;4929697;29;20438;-62
2023/12/19 01:17:58;;;;;;;6.53;4.90;;;6.70;99.90;;;;;;4920908;29;20193;-63
2023/12/19 01:20:23;;;;;;;7.23;5.00;;;6.70;99.90;;;;;;4929363;29;20193;-64
2023/12/19 01:22:49;;;;;;;7.63;5.70;;;6.80;99.90;;;;;;4935579;29;20184;-63
2023/12/19 01:25:15;;;;;;;10.00;5.60;;;6.70;99.90;;;;;;4930404;29;20643;-63
2023/12/19 01:27:40;;;;;;;6.70;4.63;;;6.70;99.90;;;;;;4925176;29;20195;-64
2023/12/19 01:30:06;;;;;;;7.43;4.63;;;6.80;99.90;;;;;;4916980;29;20177;-63
2023/12/19 01:32:32;;;;;;;6.60;4.97;;;6.80;99.90;;;;;;4927289;29;20179;-64
2023/12/19 01:34:57;;;;;;;5.13;4.23;;;6.80;99.90;;;;;;4926837;29;20470;-64
2023/12/19 01:37:23;;;;;;;9.10;4.67;;;6.80;99.90;;;;;;4925741;29;20188;-64
2023/12/19 01:39:49;;;;;;;6.17;4.77;;;6.70;99.90;;;;;;4929190;29;20288;-64
2023/12/19 01:42:14;;;;;;;7.07;5.70;;;6.70;99.90;;;;;;4932680;29;20191;-64
2023/12/19 01:44:40;;;;;;;8.53;5.73;;;6.60;99.90;;;;;;4927498;29;20212;-64
2023/12/19 01:47:05;;;;;;;8.43;6.47;;;6.60;99.90;;;;;;4921402;29;20267;-63
2023/12/19 01:49:31;;;;;;;9.63;5.83;;;6.60;99.90;;;;;;4931891;29;20196;-63
2023/12/19 01:51:57;;;;;;;6.47;5.23;;;6.50;99.90;;;;;;4923962;29;20176;-64
2023/12/19 01:54:24;;;;;;;6.03;5.43;;;6.60;99.90;;;;;;4930769;29;20474;-65
2023/12/19 01:56:50;;;;;;;9.17;5.93;;;6.60;99.90;;;;;;4925179;29;20987;-65
2023/12/19 01:59:16;;;;;;;5.83;5.23;;;6.60;99.90;;;;;;4917461;29;20512;-65
2023/12/19 02:01:42;;;;;;;8.23;5.70;;;6.60;99.90;;;;;;4927452;29;20665;-64
2023/12/19 02:04:10;;;;;;;10.00;6.23;;;6.60;99.90;;;;;;4924044;29;20470;-64
2023/12/19 02:06:35;;;;;;;6.30;5.40;;;6.70;99.90;;;;;;4925350;29;20972;-65
2023/12/19 02:09:02;;;;;;;8.40;4.83;;;6.70;99.90;;;;;;4920690;29;20531;-65
2023/12/19 02:11:28;;;;;;;8.07;6.00;;;6.70;99.90;;;;;;4926184;29;20184;-64
2023/12/19 02:13:56;;;;;;;7.47;6.67;;;6.70;99.90;;;;;;4924210;29;20448;-63
2023/12/19 02:16:24;;;;;;;8.43;6.47;;;6.70;99.90;;;;;;4924813;29;20532;-64
2023/12/19 02:19:03;;;;;;;8.43;6.37;;;6.70;99.90;;;;;;4930274;29;20503;-64
2023/12/19 02:21:29;;;;;;;8.47;6.70;;;6.70;99.90;;;;;;4921106;29;20433;-65
2023/12/19 02:23:55;;;;;;;5.73;5.13;;;6.80;99.90;;;;;;4930717;29;20942;-65
2023/12/19 02:26:22;;;;;;;4.93;4.40;;;6.80;99.90;;;;;;4918407;29;20465;-65
2023/12/19 02:28:52;;;;;;;5.70;4.73;;;6.80;99.90;;;;;;4928210;29;20239;-64
2023/12/19 02:31:18;;;;;;;8.47;6.70;;;6.80;99.90;;;;;;4922364;29;20781;-64
2023/12/19 02:33:44;;;;;;;6.83;5.57;;;6.80;99.90;;;;;;4919995;29;20462;-65
2023/12/19 02:36:09;;;;;;;6.10;5.10;;;6.80;99.90;;;;;;4914651;29;20419;-65
2023/12/19 02:38:35;;;;;;;6.83;5.70;;;6.80;99.90;;;;;;4918714;29;20192;-64
2023/12/19 02:41:00;;;;;;;6.70;5.33;;;6.90;99.90;;;;;;4925840;29;20259;-63
2023/12/19 02:43:26;;;;;;;6.60;6.00;;;6.90;99.90;;;;;;4928805;29;20211;-65
2023/12/19 02:45:51;;;;;;;7.53;5.83;;;6.90;99.90;;;;;;4920923;29;20645;-63
2023/12/19 02:48:17;;;;;;;7.67;5.23;;;6.80;99.90;;;;;;4920857;29;20273;-64
2023/12/19 02:50:43;;;;;;;6.20;5.33;;;6.80;99.90;;;;;;4927425;29;20190;-64
2023/12/19 02:53:08;;;;;;;6.00;5.37;;;6.80;99.90;;;;;;4926848;29;20185;-63
2023/12/19 02:55:34;;;;;;;7.30;5.47;;;6.80;99.90;;;;;;4917308;29;20183;-65
2023/12/19 02:57:59;;;;;;;6.60;5.43;;;6.80;99.90;;;;;;4921589;29;20280;-64
2023/12/19 03:00:25;;;;;;;7.83;5.77;;;6.80;99.90;;;;;;4919680;29;20638;-65
2023/12/19 03:02:51;;;;;;;8.97;6.10;;;6.80;99.90;;;;;;4931580;29;20191;-64
2023/12/19 03:05:18;;;;;;;7.60;5.37;;;6.80;99.90;;;;;;4919349;29;20218;-64
2023/12/19 03:07:44;;;;;;;5.60;5.10;;;6.80;99.90;;;;;;4921342;29;20179;-64
2023/12/19 03:10:09;;;;;;;10.33;5.33;;;6.80;99.90;;;;;;4931224;29;20490;-65
2023/12/19 03:12:35;;;;;;;7.57;5.50;;;6.80;99.90;;;;;;4927515;29;20271;-63
2023/12/19 03:15:02;;;;;;;5.73;4.60;;;6.90;99.90;;;;;;4920954;29;20683;-63
2023/12/19 03:17:28;;;;;;;7.77;5.20;;;6.90;99.90;;;;;;4928467;29;20427;-65
2023/12/19 03:19:53;;;;;;;6.90;5.40;;;6.90;99.90;;;;;;4929737;29;20792;-64
2023/12/19 03:22:19;;;;;;;8.70;5.87;;;6.90;99.90;;;;;;4914024;29;20302;-62
2023/12/19 03:24:45;;;;;;;7.47;5.30;;;6.90;99.90;;;;;;4928998;29;20653;-64
2023/12/19 03:27:11;;;;;;;7.90;6.67;;;6.90;99.90;;;;;;4921440;29;20264;-64
2023/12/19 03:29:37;;;;;;;7.03;6.33;;;6.90;99.90;;;;;;4917950;29;20518;-63
2023/12/19 03:32:03;;;;;;;9.50;7.60;;;6.90;99.90;;;;;;4921160;29;20177;-63
2023/12/19 03:34:29;;;;;;;9.20;6.00;;;6.90;99.90;;;;;;4919532;29;20528;-63
2023/12/19 03:36:56;;;;;;;8.07;6.07;;;7.00;99.90;;;;;;4927984;29;20529;-62
2023/12/19 03:39:22;;;;;;;8.37;7.50;;;7.00;99.90;;;;;;4929022;29;20424;-64
2023/12/19 03:41:49;;;;;;;8.90;6.90;;;7.00;99.90;;;;;;4921662;29;20416;-63
2023/12/19 03:44:15;;;;;;;15.93;7.30;;;7.00;99.90;;;;;;4928506;29;20203;-66
2023/12/19 03:46:41;;;;;;;7.67;6.67;;;7.00;99.90;;;;;;4919818;29;20415;-64
2023/12/19 03:49:07;;;;;;;11.17;6.90;;;7.00;99.90;;;;;;4932652;29;20416;-65
2023/12/19 03:51:32;;;;;;;8.87;7.47;;;7.00;99.90;;;;;;4921511;29;20168;-65
2023/12/19 03:53:58;;;;;;;9.07;7.57;;;7.00;99.90;;;;;;4919532;29;20615;-64
2023/12/19 03:56:24;;;;;;;10.07;7.60;;;7.10;99.90;;;;;;4927496;29;20596;-63
2023/12/19 03:58:50;;;;;;;7.30;6.30;;;7.10;99.90;;;;;;4925315;29;20855;-64
2023/12/19 04:01:18;;;;;;;8.43;7.17;;;7.10;99.90;;;;;;4929792;29;20366;-64
2023/12/19 04:03:44;;;;;;;12.00;7.10;;;7.10;99.90;;;;;;4922178;29;20196;-63
2023/12/19 04:06:10;;;;;;;11.20;7.60;;;7.10;99.90;;;;;;4928215;29;20563;-65
2023/12/19 04:08:35;;;;;;;10.43;6.90;;;7.10;99.90;;;;;;4920961;29;20587;-64
2023/12/19 04:11:01;;;;;;;8.43;6.90;;;7.10;99.90;;;;;;4929210;29;20252;-65
2023/12/19 04:13:27;;;;;;;9.67;7.27;;;7.10;99.90;;;;;;4928260;29;20436;-64
2023/12/19 04:15:53;;;;;;;7.17;6.27;;;7.10;99.90;;;;;;4929282;29;20491;-64
2023/12/19 04:18:18;;;;;;;7.97;7.03;;;7.10;99.90;;;;;;4916144;29;20424;-63
2023/12/19 04:20:44;;;;;;;9.70;7.03;;;7.10;99.90;;;;;;4926575;29;20243;-63
2023/12/19 04:23:11;;;;;;;8.30;7.40;;;7.10;99.90;;;;;;4935412;29;20633;-63
2023/12/19 04:25:37;;;;;;;8.63;6.90;;;7.10;99.90;;;;;;4930318;29;20205;-64
2023/12/19 04:28:02;;;;;;;10.27;8.50;;;7.10;99.90;;;;;;4933073;29;20416;-63
2023/12/19 04:30:28;;;;;;;9.43;7.40;;;7.20;99.90;;;;;;4931146;29;20774;-64
2023/12/19 04:32:54;;;;;;;10.00;7.13;;;7.20;99.90;;;;;;4920924;29;20175;-63
2023/12/19 04:35:19;;;;;;;10.70;8.00;;;7.20;99.90;;;;;;4923819;29;20227;-64
2023/12/19 04:37:45;;;;;;;10.37;8.10;;;7.10;99.90;;;;;;4922405;29;20211;-61
2023/12/19 04:40:11;;;;;;;9.10;8.17;;;7.20;99.90;;;;;;4927783;29;20211;-63
2023/12/19 04:42:36;;;;;;;10.60;8.20;;;7.20;99.90;;;;;;4930359;29;20178;-65
2023/12/19 04:45:02;;;;;;;10.20;9.20;;;7.10;99.90;;;;;;4930800;29;20547;-63
2023/12/19 04:47:28;;;;;;;11.30;6.80;;;7.20;99.90;;;;;;4919204;29;20626;-64
2023/12/19 04:49:54;;;;;;;11.20;7.37;;;7.20;99.90;;;;;;4932359;29;20173;-64
2023/12/19 04:52:20;;;;;;;10.40;8.13;;;7.20;99.90;;;;;;4925702;29;20499;-63
2023/12/19 04:54:45;;;;;;;8.73;7.60;;;7.20;99.90;;;;;;4930990;29;20265;-64
2023/12/19 04:57:11;;;;;;;8.43;7.30;;;7.30;99.90;;;;;;4928595;29;20189;-63
2023/12/19 04:59:37;;;;;;;9.63;7.67;;;7.30;99.90;;;;;;4930360;29;20460;-63
2023/12/19 05:02:03;;;;;;;8.40;6.60;;;7.20;99.90;;;;;;4925766;29;20193;-65
2023/12/19 05:04:28;;;;;;;9.33;7.63;;;7.20;99.90;;;;;;4932886;29;20304;-65
2023/12/19 05:06:54;;;;;;;8.30;6.60;;;7.30;99.90;;;;;;4928469;29;20514;-64
2023/12/19 05:09:20;;;;;;;10.77;8.27;;;7.30;99.90;;;;;;4925073;29;20183;-64
2023/12/19 05:11:46;;;;;;;9.97;7.90;;;7.30;99.90;;;;;;4931680;29;20176;-64
2023/12/19 05:14:11;;;;;;;9.33;7.90;;;7.30;99.90;;;;;;4921043;29;20442;-65
2023/12/19 05:16:37;;;;;;;7.83;7.00;;;7.30;99.90;;;;;;4930313;29;20174;-66
2023/12/19 05:19:04;;;;;;;12.13;8.57;;;7.40;99.90;;;;;;4920463;29;20181;-64
2023/12/19 05:21:36;;;;;;;9.47;7.77;;;7.40;99.90;;;;;;4924513;29;20181;-62
2023/12/19 05:24:01;;;;;;;10.13;8.40;;;7.40;99.90;;;;;;4924792;29;20445;-63
2023/12/19 05:26:27;;;;;;;9.27;7.33;;;7.40;99.90;;;;;;4926424;29;20448;-64
2023/12/19 05:28:54;;;;;;;9.50;8.60;;;7.50;99.90;;;;;;4926950;29;20183;-64
2023/12/19 05:31:21;;;;;;;10.73;7.10;;;7.50;99.90;;;;;;4918863;29;20257;-64
2023/12/19 05:33:46;;;;;;;8.87;7.60;;;7.50;99.90;;;;;;4926491;29;20455;-64
2023/12/19 05:36:12;;;;;;;10.37;8.83;;;7.50;99.90;;;;;;4922202;29;20492;-64
2023/12/19 05:38:39;;;;;;;9.80;7.80;;;7.50;99.90;;;;;;4929493;29;20252;-65
2023/12/19 05:41:05;;;;;;;11.93;7.93;;;7.40;99.90;;;;;;4934551;29;20846;-64
2023/12/19 05:43:31;;;;;;;10.07;7.50;;;7.40;99.90;;;;;;4933787;29;20531;-64
2023/12/19 05:45:57;;;;;;;11.87;6.50;;;7.40;99.90;;;;;;4931339;29;20508;-64
2023/12/19 05:48:22;;;;;;;9.57;7.83;;;7.40;99.90;;;;;;4925103;29;20414;-64
2023/12/19 05:50:49;;;;;;;8.70;7.23;;;7.40;99.90;;;;;;4920795;29;20256;-64
2023/12/19 05:53:15;;;;;;;8.60;6.90;;;7.50;99.90;;;;;;4932497;29;20553;-64
2023/12/19 05:55:42;;;;;;;8.77;7.00;;;7.50;99.90;;;;;;4927881;29;20458;-64
2023/12/19 05:58:08;;;;;;;10.47;6.90;;;7.40;99.90;;;;;;4931429;29;20420;-63
2023/12/19 06:00:34;;;;;;;8.63;7.20;;;7.40;99.90;;;;;;4927150;29;20419;-64
2023/12/19 06:03:01;;;;;;;9.03;7.23;;;7.50;99.90;;;;;;4931561;29;20440;-64
2023/12/19 06:05:26;;;;;;;9.70;6.83;;;7.50;99.90;;;;;;4930152;29;20879;-63
2023/12/19 06:07:52;;;;;;;9.37;6.87;;;7.40;99.90;;;;;;4926835;29;20187;-65
2023/12/19 06:10:17;;;;;;;10.83;8.60;;;7.50;99.90;;;;;;4926681;29;20190;-64
2023/12/19 06:12:43;;;;;;;10.33;6.77;;;7.40;99.90;;;;;;4919638;29;20177;-65
2023/12/19 06:15:13;;;;;;;11.43;7.83;;;7.50;99.90;;;;;;4928570;29;20229;-64
2023/12/19 06:17:48;;;;;;;10.50;8.87;;;7.50;99.90;;;;;;4929253;29;20262;-65
2023/12/19 06:20:14;;;;;;;10.73;7.40;;;7.50;99.90;;;;;;4925038;29;20459;-64
2023/12/19 06:22:41;;;;;;;7.80;6.83;;;7.50;99.90;;;;;;4928307;29;20427;-65
2023/12/19 06:25:07;;;;;;;9.00;7.13;;;7.50;99.90;;;;;;4918132;29;20562;-64
2023/12/19 06:27:34;;;;;;;9.50;7.47;;;7.50;99.90;;;;;;4931337;29;20419;-63
2023/12/19 06:30:00;;;;;;;9.83;7.17;;;7.40;99.90;;;;;;4928472;29;20444;-65
2023/12/19 06:32:26;;;;;;;9.60;7.40;;;7.40;99.90;;;;;;4925564;29;20834;-64
2023/12/19 06:34:51;;;;;;;8.77;6.77;;;7.40;99.90;;;;;;4919739;29;20544;-64
2023/12/19 06:37:18;;;;;;;9.13;7.57;;;7.40;99.90;;;;;;4929565;29;20176;-64
2023/12/19 06:39:44;;;;;;;7.33;6.07;;;7.40;99.90;;;;;;4922771;29;20187;-65
2023/12/19 06:42:09;;;;;;;8.37;6.30;;;7.30;99.90;;;;;;4926930;29;20438;-64
2023/12/19 06:44:35;;;;;;;7.17;5.97;;;7.30;99.90;;;;;;4922157;29;20255;-67
2023/12/19 06:47:01;;;;;;;6.90;6.13;;;7.30;99.90;;;;;;4931332;29;20175;-64
2023/12/19 06:49:26;;;;;;;7.77;5.10;;;7.30;99.90;;;;;;4929452;29;20427;-64
2023/12/19 06:51:52;;;;;;;8.63;6.20;;;7.20;99.90;;;;;;4933697;29;20662;-64
2023/12/19 06:54:18;;;;;;;6.80;5.30;;;7.20;99.90;;;;;;4923664;29;20200;-64
2023/12/19 06:56:44;;;;;;;11.03;7.37;;;7.30;99.90;;;;;;4922587;29;20831;-64
2023/12/19 06:59:09;;;;;;;6.90;5.40;;;7.30;99.90;;;;;;4917478;29;20261;-63
2023/12/19 07:01:35;;;;;;;9.23;8.07;;;7.30;99.90;;;;;;4929585;29;20182;-65
2023/12/19 07:04:01;;;;;;;7.80;6.33;;;7.20;99.90;;;;;;4927483;29;20220;-65
2023/12/19 07:06:27;;;;;;;8.30;5.83;;;7.30;99.90;;;;;;4928423;29;20461;-65
2023/12/19 07:08:52;;;;;;;10.20;6.83;;;7.20;99.90;;;;;;4925668;29;20423;-64
2023/12/19 07:11:20;;;;;;;5.50;5.00;;;7.30;99.90;;;;;;4922605;29;20217;-64
2023/12/19 07:13:46;;;;;;;8.77;5.03;;;7.30;99.90;;;;;;4927207;29;20371;-64
2023/12/19 07:16:18;;;;;;;9.07;6.80;;;7.30;99.90;;;;;;4919062;29;20506;-64
2023/12/19 07:18:45;;;;;;;7.50;6.57;;;7.30;99.90;;;;;;4922834;29;20187;-65
2023/12/19 07:21:21;;;;;;;10.53;7.90;;;7.40;99.90;;;;;;4923673;29;20436;-70
2023/12/19 07:23:48;;;;;;;9.43;8.37;;;7.40;99.90;;;;;;4924543;29;20800;-65
2023/12/19 07:26:24;;;;;;;15.83;9.60;;;7.30;99.90;;;;;;4915613;29;20458;-65
2023/12/19 07:28:51;;;;;;;12.77;7.17;;;7.40;99.90;;;;;;4928463;29;20429;-65
2023/12/19 07:31:24;;;;;;;13.00;9.33;;;7.40;99.90;;;;;;4923309;29;21665;-63
2023/12/19 07:34:03;;;;;;;21.10;10.20;;;7.40;99.90;;;;;;4921174;29;20957;-65
2023/12/19 07:36:30;;;;;;;21.43;11.97;;;7.40;99.90;;;;;;4926029;29;20928;-65
2023/12/19 07:38:56;;;;;;;17.73;12.77;;;7.40;99.90;;;;;;4925493;29;20412;-64
2023/12/19 07:41:26;;;;;;;12.70;8.80;;;7.40;99.90;;;;;;4929729;29;20422;-64
2023/12/19 07:43:55;;;;;;;13.70;10.67;;;7.30;99.90;;;;;;4925744;29;20793;-64
2023/12/19 07:46:21;;;;;;;15.13;7.77;;;7.20;99.90;;;;;;4931589;29;20466;-65
2023/12/19 07:48:46;;;;;;;13.20;8.03;;;7.10;99.90;;;;;;4922420;29;20431;-64
2023/12/19 07:51:23;;;;;;;11.57;7.30;;;7.10;99.90;;;;;;4929736;29;20177;-65
2023/12/19 07:53:50;;;;;;;11.67;8.00;;;7.00;99.90;;;;;;4925562;29;20204;-64
2023/12/19 07:56:15;;;;;;;11.60;9.03;;;7.00;99.90;;;;;;4925050;29;20507;-65
2023/12/19 07:58:41;;;;;;;12.37;9.03;;;6.90;99.90;;;;;;4930159;29;20511;-65
2023/12/19 08:01:11;;;;;;;13.13;7.77;;;6.90;99.90;;;;;;4929124;29;20239;-64
2023/12/19 08:03:37;;;;;;;9.87;7.77;;;6.90;99.90;;;;;;4929100;29;20207;-64
2023/12/19 08:06:03;;;;;;;9.57;7.23;;;6.90;99.90;;;;;;4921152;29;20952;-64
2023/12/19 08:08:28;;;;;;;10.30;7.13;;;7.00;99.90;;;;;;4920327;29;20169;-63
2023/12/19 08:10:54;;;;;;;9.77;7.60;;;7.00;99.90;;;;;;4931428;29;20424;-65
2023/12/19 08:13:20;;;;;;;9.90;8.53;;;7.00;99.90;;;;;;4934896;29;20180;-64
2023/12/19 08:15:47;;;;;;;11.53;7.30;;;7.00;99.90;;;;;;4928745;29;20180;-65
2023/12/19 08:18:13;;;;;;;9.87;7.60;;;7.00;99.90;;;;;;4916156;29;20256;-64
2023/12/19 08:20:40;;;;;;;10.10;7.93;;;7.00;99.90;;;;;;4935790;29;20921;-65
2023/12/19 08:23:05;;;;;;;10.40;7.77;;;6.90;99.90;;;;;;4928549;29;20432;-64
2023/12/19 08:25:31;;;;;;;9.70;8.10;;;6.90;99.90;;;;;;4928667;29;20966;-64
2023/12/19 08:27:56;;;;;;;11.13;8.73;;;6.80;99.90;;;;;;4922189;29;20185;-64
2023/12/19 08:30:27;;;;;;;12.50;7.67;;;6.80;99.90;;;;;;4917568;29;20181;-64
2023/12/19 08:32:54;;;;;;;9.63;8.27;;;6.80;99.90;;;;;;4920873;29;20239;-65
2023/12/19 08:35:20;;;;;;;11.87;9.20;;;6.70;99.90;;;;;;4926474;29;20459;-64
2023/12/19 08:37:46;;;;;;;15.17;9.57;;;6.80;99.90;;;;;;4928260;29;20787;-64
2023/12/19 08:40:12;;;;;;;10.17;9.10;;;6.80;99.90;;;;;;4922791;29;20426;-64
2023/12/19 08:42:38;;;;;;;12.67;9.87;;;6.70;99.90;;;;;;4932146;29;20481;-63
2023/12/19 08:45:04;;;;;;;13.57;9.83;;;6.70;99.90;;;;;;4929735;29;20238;-64
2023/12/19 08:47:30;;;;;;;13.13;9.93;;;6.80;99.90;;;;;;4925157;29;20452;-65
2023/12/19 08:49:58;;;;;;;11.23;10.03;;;6.80;99.90;;;;;;4924774;29;20416;-65
2023/12/19 08:52:26;;;;;;;12.00;8.57;;;6.70;99.90;;;;;;4921955;29;20351;-65
2023/12/19 08:54:52;;;;;;;12.13;9.67;;;6.70;99.90;;;;;;4926301;29;20506;-63
2023/12/19 08:57:18;;;;;;;13.80;8.87;;;6.70;99.90;;;;;;4928701;29;20426;-64
2023/12/19 08:59:43;;;;;;;9.60;8.03;;;6.70;99.90;;;;;;4921142;29;20234;-64
2023/12/19 09:02:09;;;;;;;11.00;7.87;;;6.70;99.90;;;;;;4934888;29;20431;-65
2023/12/19 09:04:36;;;;;;;11.50;9.70;;;6.60;99.90;;;;;;4912576;29;20337;-63
2023/12/19 09:07:02;;;;;;;13.50;8.90;;;6.60;99.90;;;;;;4928652;29;20503;-64
2023/12/19 09:09:28;;;;;;;11.70;9.17;;;6.70;99.90;;;;;;4931814;29;20181;-64
2023/12/19 09:11:57;;;;;;;12.10;8.03;;;6.70;99.90;;;;;;4930505;29;20567;-63
2023/12/19 09:14:23;;;;;;;14.60;8.70;;;6.70;99.90;;;;;;4917097;29;20492;-65
2023/12/19 09:16:49;;;;;;;13.47;9.60;;;6.70;99.90;;;;;;4930610;29;20512;-65
2023/12/19 09:19:16;;;;;;;13.67;9.30;;;6.70;99.90;;;;;;4924807;29;20184;-65
2023/12/19 09:21:43;;;;;;;11.30;8.20;;;6.60;99.90;;;;;;4928527;29;20418;-63
2023/12/19 09:24:09;;;;;;;11.40;8.83;;;6.60;99.90;;;;;;4923823;29;20986;-64
2023/12/19 09:26:37;;;;;;;11.27;9.10;;;6.70;99.90;;;;;;4932241;29;20416;-64
2023/12/19 09:29:03;;;;;;;17.27;8.90;;;6.70;99.90;;;;;;4928783;29;20418;-64
2023/12/19 09:31:28;;;;;;;19.43;9.57;;;6.70;99.90;;;;;;4924278;29;20420;-64
2023/12/19 09:33:54;;;;;;;10.67;8.97;;;6.70;99.90;;;;;;4930595;29;20324;-67
2023/12/19 09:36:21;;;;;;;8.73;6.70;;;6.60;99.90;;;;;;4927275;29;20644;-64
2023/12/19 09:38:47;;;;;;;9.00;8.07;;;6.60;99.90;;;;;;4923761;29;20187;-64
2023/12/19 09:41:13;;;;;;;10.80;9.13;;;6.60;99.90;;;;;;4919863;29;20416;-62
2023/12/19 09:43:39;;;;;;;11.37;7.83;;;6.50;99.90;;;;;;4926557;23;20231;-65
2023/12/19 09:46:07;;;;;;;12.10;8.40;;;6.60;99.90;;;;;;4899800;29;20531;-64
2023/12/19 09:48:33;;;;;;;15.70;11.47;;;6.60;99.90;;;;;;4906251;29;20928;-63
2023/12/19 09:51:11;;;;;;;17.17;12.30;;;6.70;99.90;;;;;;4907941;29;20417;-64
2023/12/19 09:53:37;;;;;;;11.60;10.40;;;6.60;99.90;;;;;;4914131;29;20805;-65
2023/12/19 09:56:03;;;;;;;13.07;10.17;;;6.50;99.90;;;;;;4913618;29;20429;-65
2023/12/19 09:58:28;;;;;;;11.13;10.03;;;6.40;99.90;;;;;;4900560;29;20875;-65
2023/12/19 10:00:58;;;;;;;11.30;9.40;;;6.50;99.90;;;;;;4914753;29;20447;-65
2023/12/19 10:03:24;;;;;;;12.23;9.40;;;6.50;99.90;;;;;;4896506;29;20288;-64
2023/12/19 10:05:49;;;;;;;8.80;7.90;;;6.50;99.90;;;;;;4917665;29;20460;-65
2023/12/19 10:08:15;;;;;;;10.87;8.40;;;6.40;99.90;;;;;;4911217;29;20468;-64
2023/12/19 10:10:55;;;;;;;10.27;8.10;;;6.40;99.90;;;;;;4916950;29;20300;-63
2023/12/19 10:13:35;;;;;;;11.07;8.13;;;6.40;99.90;;;;;;4907044;29;20235;-64
2023/12/19 10:16:08;;;;;;;8.90;8.10;;;6.40;99.90;;;;;;4910419;29;20994;-64
2023/12/19 10:18:35;;;;;;;11.93;8.00;;;6.40;99.90;;;;;;4909646;29;20451;-63
2023/12/19 10:21:24;;;;;;;11.93;7.97;;;6.30;99.90;;;;;;4904587;29;20420;-64
2023/12/19 10:23:50;;;;;;;14.57;7.80;;;6.40;99.90;;;;;;4900159;29;20518;-64
2023/12/19 10:26:21;;;;;;;12.03;8.90;;;6.40;99.90;;;;;;4910522;29;20465;-64
2023/12/19 10:28:56;;;;;;;10.53;8.13;;;6.30;99.90;;;;;;4915251;29;20409;-64
2023/12/19 10:31:24;;;;;;;10.27;8.77;;;6.40;99.90;;;;;;4912025;29;20427;-64
2023/12/19 10:33:51;;;;;;;11.27;8.40;;;6.40;99.90;;;;;;4908238;29;20439;-63
2023/12/19 10:36:24;;;;;;;15.67;11.90;;;6.40;99.90;;;;;;4912108;29;20430;-63
2023/12/19 10:38:50;;;;;;;10.90;8.67;;;6.40;99.90;;;;;;4909334;29;20424;-62
2023/12/19 10:41:24;;;;;;;12.20;8.70;;;6.40;99.90;;;;;;4916693;29;20428;-63
2023/12/19 10:43:51;;;;;;;12.90;9.07;;;6.40;99.90;;;;;;4908200;29;20540;-63
2023/12/19 10:46:19;;;;;;;13.43;10.00;;;6.50;99.90;;;;;;4912846;29;20460;-64
2023/12/19 10:48:46;;;;;;;15.87;10.73;;;6.50;99.90;;;;;;4904692;29;20425;-64
2023/12/19 10:51:16;;;;;;;16.17;11.20;;;6.50;99.90;;;;;;4909889;29;20420;-64
2023/12/19 10:53:49;;;;;;;13.77;9.87;;;6.60;99.90;;;;;;4905584;29;20489;-64
2023/12/19 10:56:21;;;;;;;10.43;8.30;;;6.60;99.90;;;;;;4911765;29;20419;-64
2023/12/19 10:58:52;;;;;;;13.10;8.97;;;6.60;99.90;;;;;;4911289;29;20414;-64
2023/12/19 11:01:22;;;;;;;13.27;10.60;;;6.60;99.90;;;;;;4904163;29;20421;-64
2023/12/19 11:03:59;;;;;;;11.40;9.40;;;6.60;99.90;;;;;;4913424;29;20441;-64
2023/12/19 11:06:29;;;;;;;12.57;10.17;;;6.70;99.90;;;;;;4906479;29;20466;-64
2023/12/19 11:08:58;;;;;;;14.47;10.40;;;6.70;99.90;;;;;;4913535;29;20445;-64
2023/12/19 11:11:40;;;;;;;15.33;10.60;;;6.60;99.90;;;;;;4906962;29;20424;-64
2023/12/19 11:14:06;;;;;;;14.97;10.10;;;6.60;99.90;;;;;;4914055;29;20404;-65
2023/12/19 11:16:53;;;;;;;17.40;11.30;;;6.70;99.90;;;;;;4909203;29;20427;-65
2023/12/19 11:19:26;;;;;;;11.47;8.97;;;6.70;99.90;;;;;;4907414;29;20240;-65
2023/12/19 11:22:06;;;;;;;12.57;10.50;;;6.60;99.90;;;;;;4904527;29;20456;-65
2023/12/19 11:25:01;;;;;;;18.13;10.20;;;6.60;99.90;;;;;;4914382;29;20982;-65
2023/12/19 11:27:39;;;;;;;12.80;10.43;;;6.60;99.90;;;;;;4911945;29;20448;-63
2023/12/19 11:30:05;;;;;;;15.67;11.10;;;6.70;99.90;;;;;;4905021;29;20424;-63
2023/12/19 11:32:35;;;;;;;14.43;10.77;;;6.70;99.90;;;;;;4912601;29;20489;-65
2023/12/19 11:35:07;;;;;;;14.83;12.50;;;6.70;99.90;;;;;;4905143;29;20426;-67
2023/12/19 11:37:34;;;;;;;22.30;13.60;;;6.70;99.90;;;;;;4912007;29;20475;-67
2023/12/19 11:40:00;;;;;;;15.83;12.07;;;6.70;99.90;;;;;;4910546;29;20427;-68
2023/12/19 11:42:37;;;;;;;12.50;10.73;;;6.70;99.90;;;;;;4870452;29;1077176;-65
2023/12/19 11:45:18;;;;;;;14.63;9.83;;;6.80;99.90;;;;;;4908751;29;20576;-64
2023/12/19 11:47:47;;;;;;;19.20;10.40;;;6.70;99.90;;;;;;4904211;29;20425;-63
2023/12/19 11:50:39;;;;;;;18.00;11.67;;;6.80;99.90;;;;;;4907082;29;20440;-66
2023/12/19 11:53:08;;;;;;;16.17;11.60;;;6.80;99.90;;;;;;4895245;29;20485;-65
2023/12/19 11:55:33;;;;;;;14.30;10.40;;;6.80;99.90;;;;;;4902092;29;20953;-65
2023/12/19 11:58:09;;;;;;;13.60;10.40;;;6.70;99.90;;;;;;4912008;29;20528;-64
2023/12/19 12:00:35;;;;;;;12.30;10.37;;;6.70;99.90;;;;;;4907857;29;20436;-64
2023/12/19 12:03:11;;;;;;;15.40;11.30;;;6.80;99.90;;;;;;4909388;29;20445;-63
2023/12/19 12:05:37;;;;;;;13.57;10.30;;;6.80;99.90;;;;;;4907320;29;20250;-64
2023/12/19 12:08:03;;;;;;;14.27;9.53;;;6.80;99.90;;;;;;4910352;29;20924;-63
2023/12/19 12:10:29;;;;;;;12.57;8.90;;;6.90;99.90;;;;;;4904555;29;20220;-64
2023/12/19 12:13:02;;;;;;;10.77;9.53;;;6.80;99.90;;;;;;4910182;29;20436;-63
2023/12/19 12:15:27;;;;;;;13.30;10.50;;;6.80;99.90;;;;;;4909805;29;20199;-64
2023/12/19 12:18:06;;;;;;;13.07;9.50;;;6.80;99.90;;;;;;4905496;29;20413;-64
2023/12/19 12:20:34;;;;;;;11.80;9.90;;;6.80;99.90;;;;;;4908959;29;20317;-62
2023/12/19 12:23:03;;;;;;;15.37;10.37;;;6.80;99.90;;;;;;4908161;29;20446;-64
2023/12/19 12:25:31;;;;;;;13.07;10.00;;;6.80;99.90;;;;;;4911731;29;20944;-64
2023/12/19 12:28:10;;;;;;;18.17;12.03;;;6.80;99.90;;;;;;4907650;29;20452;-63
2023/12/19 12:30:39;;;;;;;13.07;10.20;;;6.80;99.90;;;;;;4907574;29;20773;-64
2023/12/19 12:33:05;;;;;;;17.70;10.47;;;6.80;99.90;;;;;;4907210;29;20529;-63
2023/12/19 12:35:35;;;;;;;16.10;11.70;;;6.80;99.90;;;;;;4913164;29;20512;-63
2023/12/19 12:38:07;;;;;;;12.30;10.30;;;6.80;99.90;;;;;;4907252;29;21002;-64
2023/12/19 12:40:33;;;;;;;13.97;10.83;;;6.80;99.90;;;;;;4904681;29;20481;-64
2023/12/19 12:43:27;;;;;;;14.53;10.57;;;6.80;99.90;;;;;;4910542;29;20464;-64
2023/12/19 12:46:07;;;;;;;14.77;11.17;;;6.80;99.90;;;;;;4911800;29;20479;-63
2023/12/19 12:48:33;;;;;;;12.30;9.13;;;6.80;99.90;;;;;;4908802;29;20413;-63
2023/12/19 12:50:59;;;;;;;16.43;10.40;;;6.80;99.90;;;;;;4910487;29;20447;-65